createdAt,value
2024-02-13T00:01:13.143Z,0.90
2024-02-13T00:03:43.498Z,1.00
2024-02-13T00:06:13.802Z,1.08
2024-02-13T00:08:45.905Z,1.10
2024-02-13T00:11:17.308Z,1.13
2024-02-13T00:13:50.339Z,1.52
2024-02-13T00:16:21.906Z,0.93
2024-02-13T00:18:52.616Z,1.10
2024-02-13T00:21:22.896Z,1.52
2024-02-13T00:23:53.237Z,1.15
2024-02-13T00:26:24.956Z,1.20
2024-02-13T00:28:57.900Z,1.15
2024-02-13T00:31:28.223Z,1.20
2024-02-13T00:33:58.541Z,1.42
2024-02-13T00:36:28.930Z,1.48
2024-02-13T00:38:59.214Z,1.23
2024-02-13T00:41:30.344Z,1.20
2024-02-13T00:44:03.235Z,1.08
2024-02-13T00:46:33.534Z,0.93
2024-02-13T00:49:05.294Z,1.15
2024-02-13T00:51:35.609Z,1.17
2024-02-13T00:54:05.926Z,1.05
2024-02-13T00:56:36.308Z,1.00
2024-02-13T00:59:09.480Z,1.20
2024-02-13T01:01:40.138Z,0.90
2024-02-13T01:04:10.430Z,1.02
2024-02-13T01:06:40.910Z,0.80
2024-02-13T01:09:11.237Z,0.90
2024-02-13T01:11:41.552Z,0.90
2024-02-13T01:14:14.677Z,0.60
2024-02-13T01:16:44.969Z,1.02
2024-02-13T01:19:15.261Z,0.88
2024-02-13T01:21:45.911Z,0.65
2024-02-13T01:24:16.156Z,1.05
2024-02-13T01:26:46.990Z,0.70
2024-02-13T01:29:19.906Z,0.77
2024-02-13T01:31:50.491Z,0.60
2024-02-13T01:34:20.797Z,0.98
2024-02-13T01:36:51.106Z,0.80
2024-02-13T01:39:21.458Z,0.85
2024-02-13T01:41:51.851Z,0.57
2024-02-13T01:44:25.779Z,0.90
2024-02-13T01:46:57.348Z,0.90
2024-02-13T01:49:29.921Z,0.50
2024-02-13T01:52:03.540Z,0.50
2024-02-13T01:54:34.229Z,0.70
2024-02-13T01:57:04.669Z,0.63
2024-02-13T01:59:40.351Z,0.85
2024-02-13T02:02:13.438Z,0.90
2024-02-13T02:04:43.975Z,0.77
2024-02-13T02:07:14.772Z,0.63
2024-02-13T02:09:47.183Z,0.52
2024-02-13T02:12:18.828Z,0.85
2024-02-13T02:14:51.919Z,0.77
2024-02-13T02:17:24.026Z,1.42
2024-02-13T02:19:54.415Z,0.88
2024-02-13T02:22:25.284Z,0.70
2024-02-13T02:24:56.301Z,0.90
2024-02-13T02:27:29.348Z,0.75
2024-02-13T02:29:59.686Z,0.63
2024-02-13T02:32:30.075Z,0.77
2024-02-13T02:35:00.656Z,0.85
2024-02-13T02:37:31.124Z,0.70
2024-02-13T02:40:01.546Z,0.65
2024-02-13T02:42:34.522Z,0.68
2024-02-13T02:45:07.814Z,1.00
2024-02-13T02:47:38.689Z,0.75
2024-02-13T02:50:11.749Z,0.57
2024-02-13T02:52:43.286Z,0.70
2024-02-13T02:55:13.615Z,0.90
2024-02-13T02:57:46.594Z,0.90
2024-02-13T03:00:20.496Z,1.00
2024-02-13T03:02:51.002Z,0.85
2024-02-13T03:05:22.382Z,0.80
2024-02-13T03:07:52.762Z,0.82
2024-02-13T03:10:23.151Z,0.55
2024-02-13T03:12:56.862Z,0.70
2024-02-13T03:15:28.505Z,0.98
2024-02-13T03:17:59.337Z,0.60
2024-02-13T03:20:29.785Z,0.75
2024-02-13T03:23:00.236Z,0.77
2024-02-13T03:25:30.606Z,0.70
2024-02-13T03:28:04.086Z,1.10
2024-02-13T03:30:34.809Z,0.70
2024-02-13T03:33:05.445Z,0.70
2024-02-13T03:35:36.105Z,0.75
2024-02-13T03:38:06.760Z,0.70
2024-02-13T03:40:37.246Z,0.75
2024-02-13T03:43:11.336Z,1.17
2024-02-13T03:45:41.646Z,0.87
2024-02-13T03:48:12.317Z,0.80
2024-02-13T03:50:43.078Z,0.68
2024-02-13T03:53:14.767Z,0.90
2024-02-13T03:55:45.164Z,0.70
2024-02-13T03:58:18.332Z,0.88
2024-02-13T04:00:48.684Z,1.00
2024-02-13T04:03:19.034Z,0.95
2024-02-13T04:05:49.493Z,0.80
2024-02-13T04:08:19.898Z,1.20
2024-02-13T04:10:51.741Z,1.17
2024-02-13T04:13:25.844Z,0.90
2024-02-13T04:15:57.272Z,0.80
2024-02-13T04:18:28.238Z,1.08
2024-02-13T04:20:59.044Z,0.80
2024-02-13T04:23:30.098Z,1.00
2024-02-13T04:26:00.680Z,0.98
2024-02-13T04:28:33.639Z,0.90
2024-02-13T04:31:03.983Z,0.95
2024-02-13T04:33:34.479Z,0.90
2024-02-13T04:36:05.107Z,0.77
2024-02-13T04:38:35.547Z,1.10
2024-02-13T04:41:05.962Z,0.80
2024-02-13T04:43:38.926Z,1.27
2024-02-13T04:46:09.255Z,1.00
2024-02-13T04:48:40.349Z,1.00
2024-02-13T04:51:10.993Z,0.90
2024-02-13T04:53:41.446Z,1.00
2024-02-13T04:56:11.924Z,1.00
2024-02-13T04:58:45.417Z,0.95
2024-02-13T05:01:16.371Z,0.90
2024-02-13T05:04:07.403Z,1.20
2024-02-13T05:06:50.130Z,1.33
2024-02-13T05:09:21.513Z,0.80
2024-02-13T05:11:51.813Z,1.17
2024-02-13T05:14:25.114Z,0.70
2024-02-13T05:16:56.034Z,1.08
2024-02-13T05:19:27.677Z,0.90
2024-02-13T05:21:58.196Z,1.00
2024-02-13T05:24:28.606Z,0.88
2024-02-13T05:26:59.379Z,0.82
2024-02-13T05:29:34.543Z,0.88
2024-02-13T05:32:04.941Z,0.80
2024-02-13T05:34:35.423Z,0.70
2024-02-13T05:37:06.620Z,0.85
2024-02-13T05:39:37.606Z,0.98
2024-02-13T05:42:08.681Z,1.05
2024-02-13T05:44:41.681Z,0.63
2024-02-13T05:47:12.060Z,1.05
2024-02-13T05:49:45.592Z,1.52
2024-02-13T05:52:15.990Z,0.80
2024-02-13T05:54:46.545Z,0.90
2024-02-13T05:57:17.051Z,0.90
2024-02-13T05:59:50.406Z,1.20
2024-02-13T06:02:20.815Z,1.00
2024-02-13T06:04:51.183Z,1.00
2024-02-13T06:07:21.862Z,0.90
2024-02-13T06:09:52.258Z,1.15
2024-02-13T06:12:22.664Z,1.50
2024-02-13T06:14:55.674Z,1.35
2024-02-13T06:17:26.179Z,1.20
2024-02-13T06:19:59.218Z,1.20
2024-02-13T06:22:30.264Z,1.50
2024-02-13T06:25:00.584Z,1.60
2024-02-13T06:27:31.056Z,1.55
2024-02-13T06:30:04.872Z,1.30
2024-02-13T06:32:35.572Z,1.55
2024-02-13T06:35:06.249Z,1.55
2024-02-13T06:37:39.136Z,1.60
2024-02-13T06:40:12.071Z,1.67
2024-02-13T06:42:42.374Z,1.50
2024-02-13T06:45:15.781Z,1.27
2024-02-13T06:47:47.069Z,1.77
2024-02-13T06:50:17.843Z,1.60
2024-02-13T06:52:51.699Z,1.80
2024-02-13T06:55:22.916Z,1.65
2024-02-13T06:57:53.282Z,1.75
2024-02-13T07:00:27.474Z,2.13
2024-02-13T07:03:00.544Z,1.40
2024-02-13T07:05:31.421Z,1.85
2024-02-13T07:08:01.950Z,1.83
2024-02-13T07:10:32.478Z,1.75
2024-02-13T07:13:02.973Z,1.77
2024-02-13T07:15:36.936Z,2.38
2024-02-13T07:18:09.741Z,1.90
2024-02-13T07:20:40.538Z,2.42
2024-02-13T07:23:11.226Z,4.20
2024-02-13T07:25:41.853Z,13.27
2024-02-13T07:28:12.229Z,31.27
2024-02-13T07:30:45.216Z,57.47
2024-02-13T07:33:15.781Z,70.78
2024-02-13T07:35:46.271Z,77.72
2024-02-13T07:38:17.040Z,69.82
2024-02-13T07:40:48.189Z,55.08
2024-02-13T07:43:18.629Z,30.92
2024-02-13T07:45:51.624Z,16.48
2024-02-13T07:48:22.752Z,11.82
2024-02-13T07:50:55.457Z,7.93
2024-02-13T07:53:27.533Z,6.93
2024-02-13T07:55:58.209Z,10.00
2024-02-13T07:58:28.564Z,15.15
2024-02-13T08:01:01.574Z,12.98
2024-02-13T08:03:34.783Z,8.95
2024-02-13T08:06:05.432Z,5.25
2024-02-13T08:08:36.158Z,4.13
2024-02-13T08:11:08.154Z,3.45
2024-02-13T08:13:39.072Z,3.45
2024-02-13T08:16:12.779Z,3.40
2024-02-13T08:18:43.225Z,4.72
2024-02-13T08:21:13.734Z,4.90
2024-02-13T08:23:44.235Z,4.78
2024-02-13T08:26:14.651Z,4.75
2024-02-13T08:28:45.835Z,4.80
2024-02-13T08:31:18.794Z,4.22
2024-02-13T08:33:49.419Z,3.60
2024-02-13T08:36:20.124Z,4.07
2024-02-13T08:38:50.847Z,3.92
2024-02-13T08:41:21.281Z,2.70
2024-02-13T08:43:52.536Z,3.42
2024-02-13T08:46:26.776Z,2.72
2024-02-13T08:48:57.287Z,2.78
2024-02-13T08:51:29.373Z,2.63
2024-02-13T08:54:00.580Z,2.50
2024-02-13T08:56:31.002Z,2.85
2024-02-13T08:59:04.658Z,1.92
2024-02-13T09:01:37.762Z,2.17
2024-02-13T09:04:08.452Z,2.00
2024-02-13T09:06:38.913Z,1.80
2024-02-13T09:09:10.525Z,2.10
2024-02-13T09:11:41.047Z,2.33
2024-02-13T09:14:13.286Z,2.00
2024-02-13T09:16:46.270Z,1.83
2024-02-13T09:19:16.758Z,1.90
2024-02-13T09:21:47.298Z,2.00
2024-02-13T09:24:17.641Z,1.60
2024-02-13T09:26:48.104Z,1.80
2024-02-13T09:29:18.468Z,1.50
2024-02-13T09:31:51.762Z,1.42
2024-02-13T09:34:22.327Z,1.80
2024-02-13T09:36:52.865Z,1.88
2024-02-13T09:39:23.802Z,1.60
2024-02-13T09:41:55.893Z,1.67
2024-02-13T09:44:26.812Z,1.45
2024-02-13T09:46:59.934Z,1.92
2024-02-13T09:49:31.629Z,1.55
2024-02-13T09:52:07.350Z,1.90
2024-02-13T09:54:40.538Z,1.63
2024-02-13T09:57:12.129Z,1.83
2024-02-13T09:59:43.101Z,2.10
2024-02-13T10:02:17.275Z,1.80
2024-02-13T10:04:48.389Z,2.00
2024-02-13T10:07:18.774Z,1.73
2024-02-13T10:09:50.779Z,2.00
2024-02-13T10:12:21.949Z,1.65
2024-02-13T10:15:02.219Z,2.00
2024-02-13T10:17:35.364Z,1.80
2024-02-13T10:20:07.819Z,1.63
2024-02-13T10:22:38.588Z,2.00
2024-02-13T10:25:12.259Z,1.60
2024-02-13T10:27:44.148Z,1.80
2024-02-13T10:30:25.094Z,1.55
2024-02-13T10:32:58.924Z,1.70
2024-02-13T10:35:31.107Z,1.48
2024-02-13T10:38:01.609Z,1.48
2024-02-13T10:40:35.363Z,1.55
2024-02-13T10:43:06.979Z,1.38
2024-02-13T10:45:40.982Z,1.30
2024-02-13T10:48:26.768Z,1.70
2024-02-13T10:50:59.420Z,1.25
2024-02-13T10:53:31.124Z,1.30
2024-02-13T10:56:02.561Z,1.35
2024-02-13T10:58:35.172Z,1.52
2024-02-13T11:01:07.262Z,1.67
2024-02-13T11:03:41.659Z,2.13
2024-02-13T11:06:12.396Z,1.73
2024-02-13T11:08:43.520Z,2.33
2024-02-13T11:11:22.877Z,2.70
2024-02-13T11:13:53.648Z,2.78
2024-02-13T11:16:24.290Z,2.42
2024-02-13T11:18:57.694Z,2.58
2024-02-13T11:21:30.082Z,2.03
2024-02-13T11:24:03.923Z,2.70
2024-02-13T11:26:38.016Z,2.67
2024-02-13T11:29:21.423Z,2.58
2024-02-13T11:31:59.949Z,2.42
2024-02-13T11:34:46.521Z,2.10
2024-02-13T11:37:28.499Z,2.15
2024-02-13T11:40:01.821Z,2.03
2024-02-13T11:42:36.767Z,2.15
2024-02-13T11:47:39.633Z,2.05
2024-02-13T11:50:15.065Z,2.17
2024-02-13T11:52:45.793Z,2.65
2024-02-13T11:55:16.953Z,2.65
2024-02-13T11:57:48.781Z,2.58
2024-02-13T12:00:23.540Z,2.42
2024-02-13T12:02:56.432Z,2.30
2024-02-13T12:05:30.211Z,3.08
2024-02-13T12:08:00.892Z,3.05
2024-02-13T12:10:31.543Z,3.65
2024-02-13T12:13:02.328Z,3.40
2024-02-13T12:15:32.869Z,3.40
2024-02-13T12:18:04.972Z,3.28
2024-02-13T12:20:38.180Z,3.17
2024-02-13T12:23:13.726Z,3.38
2024-02-13T12:25:44.132Z,3.20
2024-02-13T12:28:18.890Z,3.10
2024-02-13T12:30:52.247Z,3.20
2024-02-13T12:33:25.334Z,3.03
2024-02-13T12:36:09.208Z,2.67
2024-02-13T12:38:40.294Z,2.78
2024-02-13T12:41:10.707Z,3.30
2024-02-13T12:43:42.683Z,2.55
2024-02-13T12:46:14.608Z,2.58
2024-02-13T12:48:45.068Z,3.03
2024-02-13T12:51:19.475Z,2.85
2024-02-13T12:53:52.726Z,3.05
2024-02-13T12:56:25.157Z,2.70
2024-02-13T12:58:55.514Z,2.63
2024-02-13T13:01:26.372Z,2.70
2024-02-13T13:03:58.944Z,2.38
2024-02-13T13:06:34.822Z,3.15
2024-02-13T13:09:16.169Z,2.63
2024-02-13T13:14:22.170Z,2.92
2024-02-13T13:16:53.406Z,3.08
2024-02-13T13:19:29.447Z,3.17
2024-02-13T13:22:04.441Z,3.03
2024-02-13T13:24:34.873Z,3.47
2024-02-13T13:27:10.182Z,3.22
2024-02-13T13:29:43.130Z,3.10
2024-02-13T13:32:13.579Z,2.70
2024-02-13T13:34:44.924Z,3.80
2024-02-13T13:37:17.963Z,5.80
2024-02-13T13:39:48.714Z,5.70
2024-02-13T13:42:21.048Z,5.05
2024-02-13T13:44:51.566Z,4.60
2024-02-13T13:47:21.957Z,5.18
2024-02-13T13:49:52.320Z,5.18
2024-02-13T13:52:28.044Z,5.15
2024-02-13T13:54:58.381Z,5.15
2024-02-13T13:57:28.720Z,4.93
2024-02-13T13:59:59.149Z,4.65
2024-02-13T14:02:29.944Z,5.38
2024-02-13T14:05:01.253Z,4.68
2024-02-13T14:07:34.220Z,4.07
2024-02-13T14:10:04.575Z,4.80
2024-02-13T14:12:34.977Z,4.55
2024-02-13T14:15:05.994Z,4.57
2024-02-13T14:17:36.991Z,4.43
2024-02-13T14:20:11.325Z,3.67
2024-02-13T14:22:46.200Z,3.75
2024-02-13T14:27:49.513Z,4.28
2024-02-13T14:30:20.546Z,4.10
2024-02-13T14:32:51.372Z,4.30
2024-02-13T14:35:22.460Z,4.18
2024-02-13T14:37:57.937Z,4.60
2024-02-13T14:40:29.622Z,4.50
2024-02-13T14:42:59.997Z,4.88
2024-02-13T14:45:30.452Z,4.57
2024-02-13T14:48:00.926Z,4.15
2024-02-13T14:50:31.431Z,3.97
2024-02-13T14:53:05.597Z,4.47
2024-02-13T14:55:35.944Z,3.80
2024-02-13T14:58:14.812Z,4.03
2024-02-13T15:00:54.907Z,3.95
2024-02-13T15:03:26.015Z,4.50
2024-02-13T15:05:56.778Z,4.43
2024-02-13T15:08:31.256Z,4.32
2024-02-13T15:11:05.023Z,3.42
2024-02-13T15:13:36.950Z,4.80
2024-02-13T15:16:08.998Z,4.88
2024-02-13T15:18:40.741Z,5.72
2024-02-13T15:21:11.295Z,4.93
2024-02-13T15:23:45.107Z,4.85
2024-02-13T15:26:15.478Z,5.18
2024-02-13T15:28:45.916Z,4.88
2024-02-13T15:31:16.250Z,4.97
2024-02-13T15:33:48.711Z,5.50
2024-02-13T15:36:32.917Z,6.32
2024-02-13T15:39:18.721Z,5.80
2024-02-13T15:42:02.542Z,5.40
2024-02-13T15:44:45.270Z,5.80
2024-02-13T15:47:16.777Z,5.47
2024-02-13T15:49:51.378Z,5.68
2024-02-13T15:52:22.898Z,5.80
2024-02-13T15:54:56.320Z,6.28
2024-02-13T15:57:27.723Z,6.18
2024-02-13T15:59:58.131Z,6.30
2024-02-13T16:02:28.544Z,6.28
2024-02-13T16:04:58.894Z,6.18
2024-02-13T16:07:33.444Z,6.55
2024-02-13T16:10:07.238Z,6.38
2024-02-13T16:12:38.640Z,6.00
2024-02-13T16:15:13.648Z,6.82
2024-02-13T16:20:16.436Z,6.85
2024-02-13T16:22:47.625Z,7.85
2024-02-13T16:25:20.835Z,6.50
2024-02-13T16:27:52.535Z,7.82
2024-02-13T16:30:24.253Z,7.15
2024-02-13T16:32:54.651Z,7.35
2024-02-13T16:35:26.038Z,7.00
2024-02-13T16:37:56.511Z,7.70
2024-02-13T16:40:29.484Z,7.50
2024-02-13T16:43:01.494Z,8.65
2024-02-13T16:45:33.812Z,9.05
2024-02-13T16:48:06.503Z,8.63
2024-02-13T16:50:36.999Z,9.52
2024-02-13T16:53:08.277Z,9.05
2024-02-13T16:55:41.909Z,9.98
2024-02-13T16:58:12.608Z,11.50
2024-02-13T17:00:42.992Z,10.02
2024-02-13T17:03:14.636Z,12.55
2024-02-13T17:05:45.160Z,15.35
2024-02-13T17:08:15.611Z,15.63
2024-02-13T17:10:48.696Z,15.05
2024-02-13T17:13:19.022Z,13.73
2024-02-13T17:15:49.544Z,15.07
2024-02-13T17:18:22.500Z,13.05
2024-02-13T17:20:53.138Z,12.80
2024-02-13T17:23:23.596Z,13.75
2024-02-13T17:25:56.892Z,14.20
2024-02-13T17:28:27.291Z,16.33
2024-02-13T17:30:58.582Z,15.90
2024-02-13T17:33:29.132Z,15.20
2024-02-13T17:36:00.352Z,14.45
2024-02-13T17:38:30.721Z,14.77
2024-02-13T17:41:03.684Z,14.20
2024-02-13T17:43:34.752Z,17.45
2024-02-13T17:46:05.742Z,17.13
2024-02-13T17:48:36.260Z,16.25
2024-02-13T17:51:08.434Z,17.38
2024-02-13T17:53:38.978Z,18.55
2024-02-13T17:56:13.941Z,19.10
2024-02-13T18:01:14.837Z,17.50
2024-02-13T18:03:45.252Z,16.15
2024-02-13T18:06:15.722Z,16.42
2024-02-13T18:08:46.376Z,19.95
2024-02-13T18:11:19.439Z,17.92
2024-02-13T18:13:52.120Z,18.33
2024-02-13T18:16:22.834Z,22.42
2024-02-13T18:18:53.321Z,18.52
2024-02-13T18:21:23.966Z,19.70
2024-02-13T18:23:58.927Z,20.55
2024-02-13T18:26:33.787Z,21.85
2024-02-13T18:29:04.154Z,21.98
2024-02-13T18:31:34.489Z,18.48
2024-02-13T18:34:05.112Z,20.80
2024-02-13T18:36:35.587Z,17.45
2024-02-13T18:39:06.444Z,17.88
2024-02-13T18:41:39.395Z,19.48
2024-02-13T18:44:09.799Z,20.70
2024-02-13T18:46:43.616Z,25.50
2024-02-13T18:49:14.313Z,22.65
2024-02-13T18:51:44.689Z,22.00
2024-02-13T18:54:15.825Z,23.70
2024-02-13T18:56:49.946Z,23.27
2024-02-13T18:59:20.983Z,16.47
2024-02-13T19:01:53.442Z,22.48
2024-02-13T19:04:23.812Z,26.17
2024-02-13T19:06:54.471Z,23.73
2024-02-13T19:09:25.001Z,28.20
2024-02-13T19:11:58.049Z,28.42
2024-02-13T19:14:28.501Z,28.90
2024-02-13T19:16:59.800Z,25.77
2024-02-13T19:19:30.150Z,26.08
2024-02-13T19:22:00.497Z,25.80
2024-02-13T19:24:30.974Z,29.77
2024-02-13T19:27:04.341Z,24.58
2024-02-13T19:29:34.857Z,24.75
2024-02-13T19:32:05.578Z,27.42
2024-02-13T19:34:36.279Z,24.30
2024-02-13T19:37:07.125Z,24.88
2024-02-13T19:39:38.521Z,24.55
2024-02-13T19:42:13.410Z,28.17
2024-02-13T19:44:46.095Z,23.52
2024-02-13T19:47:16.448Z,23.80
2024-02-13T19:49:46.923Z,30.88
2024-02-13T19:52:17.640Z,24.77
2024-02-13T19:54:48.102Z,28.30
2024-02-13T19:57:21.082Z,26.98
2024-02-13T19:59:52.288Z,26.65
2024-02-13T20:02:23.247Z,26.30
2024-02-13T20:04:58.254Z,27.83
2024-02-13T20:07:29.138Z,28.58
2024-02-13T20:09:59.505Z,28.40
2024-02-13T20:12:33.621Z,30.23
2024-02-13T20:15:04.618Z,30.90
2024-02-13T20:17:35.204Z,28.60
2024-02-13T20:20:05.761Z,28.27
2024-02-13T20:22:36.337Z,30.25
2024-02-13T20:25:07.257Z,27.65
2024-02-13T20:27:44.766Z,29.98
2024-02-13T20:30:17.390Z,27.55
2024-02-13T20:32:50.350Z,27.55
2024-02-13T20:35:21.103Z,27.65
2024-02-13T20:37:51.528Z,27.60
2024-02-13T20:40:21.938Z,26.92
2024-02-13T20:42:57.806Z,26.17
2024-02-13T20:45:28.321Z,25.52
2024-02-13T20:47:58.836Z,23.95
2024-02-13T20:50:29.347Z,22.98
2024-02-13T20:52:59.685Z,22.42
2024-02-13T20:55:30.159Z,19.58
2024-02-13T20:58:04.398Z,18.75
2024-02-13T21:00:36.514Z,17.95
2024-02-13T21:03:07.301Z,18.58
2024-02-13T21:05:39.642Z,19.15
2024-02-13T21:08:10.707Z,17.50
2024-02-13T21:10:41.217Z,16.77
2024-02-13T21:13:15.103Z,17.67
2024-02-13T21:15:45.478Z,15.32
2024-02-13T21:18:15.971Z,15.88
2024-02-13T21:20:47.766Z,79.68
2024-02-13T21:23:30.712Z,26.63
2024-02-13T21:26:01.285Z,18.75
2024-02-13T21:28:34.610Z,15.45
2024-02-13T21:31:07.936Z,14.95
2024-02-13T21:33:38.389Z,13.63
2024-02-13T21:36:10.129Z,12.45
2024-02-13T21:38:40.550Z,11.93
2024-02-13T21:41:12.581Z,11.18
2024-02-13T21:43:45.569Z,10.02
2024-02-13T21:46:19.833Z,9.73
2024-02-13T21:48:50.685Z,11.02
2024-02-13T21:51:21.145Z,9.10
2024-02-13T21:53:51.633Z,9.43
2024-02-13T21:56:25.294Z,8.88
2024-02-13T22:01:30.996Z,7.35
2024-02-13T22:04:01.429Z,6.45
2024-02-13T22:06:33.400Z,6.22
2024-02-13T22:09:04.015Z,5.80
2024-02-13T22:11:34.820Z,6.22
2024-02-13T22:14:07.775Z,5.65
2024-02-13T22:16:38.756Z,5.40
2024-02-13T22:19:09.234Z,4.55
2024-02-13T22:21:39.701Z,4.30
2024-02-13T22:24:10.621Z,4.05
2024-02-13T22:26:41.902Z,4.00
2024-02-13T22:29:14.900Z,3.30
2024-02-13T22:31:45.664Z,3.10
2024-02-13T22:34:16.423Z,3.53
2024-02-13T22:36:46.918Z,2.72
2024-02-13T22:39:17.491Z,3.13
2024-02-13T22:41:47.951Z,2.40
2024-02-13T22:44:24.571Z,2.25
2024-02-13T22:46:55.128Z,2.10
2024-02-13T22:49:25.505Z,2.30
2024-02-13T22:51:55.908Z,2.40
2024-02-13T22:54:26.640Z,1.90
2024-02-13T22:56:57.943Z,1.80
2024-02-13T22:59:30.967Z,1.90
2024-02-13T23:02:01.634Z,1.50
2024-02-13T23:04:32.535Z,1.55
2024-02-13T23:07:02.983Z,1.58
2024-02-13T23:09:33.351Z,1.40
2024-02-13T23:12:04.136Z,1.50
2024-02-13T23:14:38.307Z,1.60
2024-02-13T23:17:09.163Z,1.17
2024-02-13T23:19:40.279Z,1.40
2024-02-13T23:22:10.756Z,1.67
2024-02-13T23:24:42.711Z,1.20
2024-02-13T23:27:13.078Z,1.38
2024-02-13T23:29:46.087Z,1.67
2024-02-13T23:32:16.954Z,1.58
2024-02-13T23:34:47.383Z,1.63
2024-02-13T23:37:17.759Z,2.03
2024-02-13T23:39:48.411Z,1.60
2024-02-13T23:42:18.772Z,1.95
2024-02-13T23:44:51.720Z,1.83
2024-02-13T23:47:22.276Z,2.30
2024-02-13T23:49:52.824Z,2.15
2024-02-13T23:52:23.185Z,2.25
2024-02-13T23:54:53.543Z,2.30
2024-02-13T23:57:24.070Z,2.42
2024-02-13T23:59:57.154Z,2.45
